Time;durP1;ratioP1;P1;durP2;ratioP2;P2;SDS_P1;SDS_P2;PMS_P1;PMS_P2;Temp;Humidity;BMP_temperature;BMP_pressure;BME280_temperature;BME280_humidity;BME280_pressure;Samples;Min_cycle;Max_cycle;Signal;HPM_P1;HPM_P2
2022/04/03 00:01:57;;;;;;;1.23;1.13;;;;;;;17.89;37.08;102293.19;5144184;28;20015;-60
2022/04/03 00:04:24;;;;;;;1.25;1.15;;;;;;;17.87;36.88;102285.22;5144802;27;20056;-59
2022/04/03 00:06:49;;;;;;;1.30;1.08;;;;;;;17.86;36.90;102285.38;5148030;27;20027;-59
2022/04/03 00:09:14;;;;;;;1.13;1.05;;;;;;;17.84;36.90;102293.59;5148472;27;20055;-59
2022/04/03 00:11:40;;;;;;;1.23;1.10;;;;;;;17.83;36.83;102283.78;5147823;27;20065;-59
2022/04/03 00:14:05;;;;;;;1.77;1.33;;;;;;;17.81;36.82;102291.13;5148674;27;20027;-59
2022/04/03 00:16:32;;;;;;;1.63;1.40;;;;;;;17.79;36.84;102286.84;5148482;27;20650;-59
2022/04/03 00:18:58;;;;;;;1.75;1.25;;;;;;;17.77;36.85;102283.47;5148581;27;20050;-59
2022/04/03 00:21:23;;;;;;;1.55;1.45;;;;;;;17.78;36.91;102288.69;5148186;27;20034;-60
2022/04/03 00:23:48;;;;;;;1.45;1.20;;;;;;;17.77;36.84;102291.53;5148137;27;20104;-59
2022/04/03 00:26:14;;;;;;;2.05;1.10;;;;;;;17.77;36.99;102291.53;5147655;27;20039;-60
2022/04/03 00:28:39;;;;;;;1.23;1.10;;;;;;;17.74;37.01;102288.09;5148636;27;20385;-60
2022/04/03 00:31:04;;;;;;;1.45;1.30;;;;;;;17.74;36.47;102292.63;5148102;27;20031;-60
2022/04/03 00:33:30;;;;;;;1.27;1.17;;;;;;;17.72;36.60;102286.50;5148442;27;20110;-60
2022/04/03 00:35:55;;;;;;;1.98;1.65;;;;;;;17.71;36.95;102293.72;5147531;27;20051;-60
2022/04/03 00:38:20;;;;;;;1.23;1.10;;;;;;;17.70;36.77;102293.81;5147890;27;20448;-60
2022/04/03 00:40:46;;;;;;;1.27;1.15;;;;;;;17.68;36.89;102285.91;5147202;27;20066;-60
2022/04/03 00:43:12;;;;;;;2.13;1.40;;;;;;;17.67;36.79;102286.00;5129702;27;20430;-60
2022/04/03 00:45:45;;;;;;;1.30;1.20;;;;;;;17.67;36.76;102286.88;5147694;27;20035;-60
2022/04/03 00:48:11;;;;;;;1.20;1.13;;;;;;;17.64;36.90;102281.75;5146545;27;20072;-60
2022/04/03 00:50:37;;;;;;;1.23;1.13;;;;;;;17.63;36.75;102280.03;5126930;28;20473;-60
2022/04/03 00:53:02;;;;;;;1.52;1.30;;;;;;;17.61;36.91;102284.69;5135424;27;20042;-60
2022/04/03 00:55:28;;;;;;;1.67;1.23;;;;;;;17.63;37.04;102289.94;5147006;27;20468;-60
2022/04/03 00:57:53;;;;;;;1.30;1.20;;;;;;;17.61;36.68;102279.31;5148128;27;20011;-60
2022/04/03 01:00:19;;;;;;;1.40;1.30;;;;;;;17.57;36.87;102277.00;5129054;27;20043;-60
2022/04/03 01:02:44;;;;;;;1.80;1.25;;;;;;;17.58;36.87;102281.38;5147782;27;20027;-60
2022/04/03 01:05:10;;;;;;;1.23;1.13;;;;;;;17.58;36.99;102289.44;5146418;27;20027;-60
2022/04/03 01:07:35;;;;;;;1.85;1.50;;;;;;;17.57;36.86;102282.38;5147900;27;20087;-60
2022/04/03 01:10:01;;;;;;;1.30;1.20;;;;;;;17.56;36.93;102280.66;5146380;27;20035;-58
2022/04/03 01:12:26;;;;;;;2.67;1.38;;;;;;;17.55;36.87;102282.50;5147715;27;20031;-60
2022/04/03 01:14:51;;;;;;;1.35;1.25;;;;;;;17.51;36.67;102273.00;5147325;27;20644;-60
2022/04/03 01:17:16;;;;;;;1.73;1.38;;;;;;;17.52;36.86;102282.75;5146453;27;20084;-60
2022/04/03 01:19:42;;;;;;;1.42;1.33;;;;;;;17.51;36.75;102281.06;5147037;27;20034;-60
2022/04/03 01:22:08;;;;;;;1.30;1.20;;;;;;;17.52;36.86;102289.97;5147284;27;20046;-60
2022/04/03 01:24:33;;;;;;;1.30;1.20;;;;;;;17.49;36.78;102289.22;5147116;27;20051;-60
2022/04/03 01:26:59;;;;;;;1.25;1.15;;;;;;;17.48;36.71;102284.84;5146312;27;20022;-60
2022/04/03 01:29:24;;;;;;;1.88;1.30;;;;;;;17.47;36.74;102280.44;5147257;27;20019;-60
2022/04/03 01:31:51;;;;;;;1.50;1.20;;;;;;;17.45;36.66;102282.38;5146764;27;20046;-60
2022/04/03 01:34:17;;;;;;;1.65;1.55;;;;;;;17.45;36.91;102287.78;5126384;28;20046;-59
2022/04/03 01:36:43;;;;;;;2.05;1.60;;;;;;;17.44;36.85;102291.44;5126100;28;20036;-60
2022/04/03 01:39:12;;;;;;;1.52;1.25;;;;;;;17.42;36.63;102274.59;5107863;28;20031;-59
2022/04/03 01:41:38;;;;;;;1.40;1.30;;;;;;;17.42;36.82;102268.38;5125334;28;20050;-60
2022/04/03 01:44:08;;;;;;;1.90;1.30;;;;;;;17.41;36.70;102272.00;5126506;28;20480;-59
2022/04/03 01:46:34;;;;;;;1.83;1.40;;;;;;;17.40;36.65;102270.31;5140114;27;20016;-60
2022/04/03 01:49:00;;;;;;;2.35;1.60;;;;;;;17.39;36.72;102261.41;5146801;27;20023;-60
2022/04/03 01:51:25;;;;;;;1.50;1.40;;;;;;;17.37;36.84;102262.50;5146455;27;20035;-60
2022/04/03 01:53:50;;;;;;;1.65;1.30;;;;;;;17.37;36.62;102273.25;5146463;27;20072;-60
2022/04/03 01:56:16;;;;;;;1.60;1.30;;;;;;;17.35;36.96;102270.69;5145415;27;20110;-60
2022/04/03 01:58:41;;;;;;;1.40;1.30;;;;;;;17.35;36.61;102267.16;5146922;27;20050;-60
2022/04/03 02:01:06;;;;;;;1.70;1.60;;;;;;;17.32;36.82;102264.72;5127900;27;20120;-60
2022/04/03 02:03:32;;;;;;;1.70;1.30;;;;;;;17.32;36.83;102268.25;5146632;27;20058;-59
2022/04/03 02:05:57;;;;;;;1.70;1.60;;;;;;;17.32;36.72;102270.09;5127637;27;20074;-60
2022/04/03 02:08:23;;;;;;;1.40;1.30;;;;;;;17.31;36.80;102269.22;5146401;27;20471;-60
2022/04/03 02:10:48;;;;;;;1.23;1.13;;;;;;;17.31;36.76;102265.69;5145271;27;20071;-60
2022/04/03 02:13:14;;;;;;;1.92;1.30;;;;;;;17.30;36.62;102261.31;5146565;27;20027;-60
2022/04/03 02:15:39;;;;;;;1.67;1.20;;;;;;;17.26;36.78;102260.69;5127739;27;20043;-60
2022/04/03 02:18:04;;;;;;;1.30;1.20;;;;;;;17.27;36.88;102267.78;5146620;27;20019;-60
2022/04/03 02:20:31;;;;;;;1.42;1.30;;;;;;;17.26;36.78;102260.69;5145851;27;20109;-60
2022/04/03 02:22:57;;;;;;;2.00;1.45;;;;;;;17.22;36.78;102260.09;5146174;27;20027;-60
2022/04/03 02:25:22;;;;;;;1.30;1.17;;;;;;;17.24;36.68;102259.94;5144675;27;20488;-60
2022/04/03 02:27:47;;;;;;;1.92;1.60;;;;;;;17.23;36.70;102252.88;5146145;27;20026;-60
2022/04/03 02:30:13;;;;;;;1.65;1.27;;;;;;;17.22;36.67;102270.84;5145984;27;20023;-60
2022/04/03 02:32:39;;;;;;;1.60;1.30;;;;;;;17.22;36.85;102268.16;5146115;27;20023;-60
2022/04/03 02:35:06;;;;;;;1.70;1.50;;;;;;;17.21;36.77;102266.44;5145509;27;20555;-60
2022/04/03 02:37:33;;;;;;;1.40;1.30;;;;;;;17.22;36.78;102269.97;5146225;27;20030;-60
2022/04/03 02:39:59;;;;;;;1.73;1.63;;;;;;;17.21;36.66;102268.28;5144940;27;20027;-60
2022/04/03 02:42:24;;;;;;;1.73;1.30;;;;;;;17.19;36.75;102265.69;5145510;27;20048;-60
2022/04/03 02:44:50;;;;;;;1.77;1.45;;;;;;;17.18;36.71;102264.00;5145362;27;20027;-60
2022/04/03 02:47:15;;;;;;;1.95;1.15;;;;;;;17.19;36.77;102270.22;5143758;27;20030;-60
2022/04/03 02:49:41;;;;;;;1.42;1.30;;;;;;;17.18;36.75;102266.69;5145193;27;20027;-60
2022/04/03 02:52:06;;;;;;;1.90;1.40;;;;;;;17.17;36.81;102256.06;5145436;27;20023;-60
2022/04/03 02:54:31;;;;;;;1.88;1.65;;;;;;;17.16;37.20;102254.34;5145208;27;20046;-60
2022/04/03 02:56:57;;;;;;;1.38;1.27;;;;;;;17.15;36.81;102256.19;5144323;27;20022;-60
2022/04/03 02:59:22;;;;;;;2.00;1.30;;;;;;;17.15;36.95;102258.00;5145561;27;20050;-61
2022/04/03 03:01:47;;;;;;;1.40;1.30;;;;;;;17.13;36.84;102262.66;5145148;27;20035;-60
2022/04/03 03:04:14;;;;;;;1.55;1.20;;;;;;;17.13;37.00;102265.34;5145080;27;20040;-60
2022/04/03 03:06:40;;;;;;;1.60;1.33;;;;;;;17.12;36.84;102258.25;5145385;27;20052;-60
2022/04/03 03:09:05;;;;;;;1.98;1.45;;;;;;;17.12;37.17;102260.94;5145245;27;20027;-60
2022/04/03 03:11:30;;;;;;;1.40;1.30;;;;;;;17.10;36.62;102258.38;5144323;27;20028;-60
2022/04/03 03:13:55;;;;;;;1.38;1.27;;;;;;;17.10;36.95;102252.16;5145427;27;20038;-60
2022/04/03 03:16:21;;;;;;;1.30;1.20;;;;;;;17.09;36.98;102253.16;5145033;27;20052;-60
2022/04/03 03:18:46;;;;;;;2.05;1.30;;;;;;;17.07;36.91;102252.41;5145259;27;20016;-60
2022/04/03 03:21:11;;;;;;;1.63;1.33;;;;;;;17.06;36.93;102254.25;5126566;27;20023;-60
2022/04/03 03:23:40;;;;;;;1.40;1.30;;;;;;;17.07;36.89;102247.88;5144694;27;20027;-60
2022/04/03 03:26:05;;;;;;;1.60;1.50;;;;;;;17.05;37.00;102249.84;5143874;27;20027;-60
2022/04/03 03:28:31;;;;;;;1.98;1.30;;;;;;;17.01;36.94;102245.69;5145204;27;20069;-60
2022/04/03 03:30:57;;;;;;;1.40;1.30;;;;;;;17.05;36.82;102244.47;5144527;27;20019;-60
2022/04/03 03:33:22;;;;;;;1.50;1.40;;;;;;;17.06;36.96;102251.56;5145011;27;20609;-60
2022/04/03 03:35:47;;;;;;;1.65;1.20;;;;;;;17.06;36.79;102240.81;5144164;27;20047;-60
2022/04/03 03:38:12;;;;;;;2.05;1.40;;;;;;;17.06;36.80;102242.63;5144699;27;20034;-60
2022/04/03 03:40:39;;;;;;;2.20;1.50;;;;;;;17.08;37.00;102236.16;5143045;27;20027;-59
2022/04/03 03:43:04;;;;;;;1.40;1.30;;;;;;;17.08;36.89;102240.69;5145111;27;20110;-60
2022/04/03 03:45:30;;;;;;;1.45;1.30;;;;;;;17.10;36.59;102236.88;5144478;27;20015;-59
2022/04/03 03:47:57;;;;;;;1.30;1.20;;;;;;;17.11;36.77;102235.06;5145016;27;20034;-59
2022/04/03 03:50:22;;;;;;;1.05;1.05;;;;;;;17.12;36.69;102234.94;5144348;27;20038;-57
2022/04/03 03:52:48;;;;;;;1.23;1.15;;;;;;;17.14;36.61;102237.50;5144281;27;20020;-59
2022/04/03 03:55:13;;;;;;;1.27;1.17;;;;;;;17.15;36.57;102241.88;5143711;28;20065;-59
2022/04/03 03:57:39;;;;;;;1.50;1.40;;;;;;;17.16;36.41;102236.41;5144586;28;20023;-59
2022/04/03 04:00:05;;;;;;;1.98;1.40;;;;;;;17.18;36.59;102242.50;5144581;28;20034;-59
2022/04/03 04:02:31;;;;;;;1.20;1.13;;;;;;;17.16;36.49;102228.34;5126129;28;20090;-59
2022/04/03 04:04:57;;;;;;;1.35;1.13;;;;;;;17.21;36.38;102238.72;5144356;28;20084;-59
2022/04/03 04:07:22;;;;;;;1.35;1.20;;;;;;;17.22;36.36;102243.97;5144627;28;20019;-59
2022/04/03 04:09:47;;;;;;;1.75;1.30;;;;;;;17.24;36.45;102243.81;5143770;28;20145;-59
2022/04/03 04:12:13;;;;;;;1.08;1.08;;;;;;;17.26;36.38;102246.41;5144192;28;20027;-59
2022/04/03 04:14:41;;;;;;;1.30;1.20;;;;;;;17.26;36.21;102247.25;5144436;28;20048;-60
2022/04/03 04:17:08;;;;;;;1.40;1.30;;;;;;;17.28;36.41;102250.66;5144452;28;20031;-60
2022/04/03 04:19:34;;;;;;;1.42;1.20;;;;;;;17.28;36.16;102239.91;5144283;28;20266;-59
2022/04/03 04:21:59;;;;;;;1.02;1.02;;;;;;;17.31;36.17;102245.03;5144410;28;20030;-59
2022/04/03 04:24:25;;;;;;;1.40;1.30;;;;;;;17.33;36.32;102247.59;5143971;28;20083;-59
2022/04/03 04:26:50;;;;;;;1.35;1.25;;;;;;;17.34;36.40;102246.63;5143334;28;20114;-60
2022/04/03 04:29:15;;;;;;;1.23;1.13;;;;;;;17.36;36.27;102250.88;5126047;28;20023;-59
2022/04/03 04:31:40;;;;;;;1.75;1.40;;;;;;;17.36;36.21;102245.50;5144214;28;20027;-60
2022/04/03 04:34:07;;;;;;;1.30;1.20;;;;;;;17.38;36.08;102240.88;5144300;28;20110;-60
2022/04/03 04:36:32;;;;;;;1.33;1.23;;;;;;;17.42;35.96;102246.84;5143730;28;20059;-59
2022/04/03 04:38:58;;;;;;;1.17;1.08;;;;;;;17.42;36.06;102249.56;5144120;28;20100;-60
2022/04/03 04:41:23;;;;;;;1.15;1.13;;;;;;;17.45;35.85;102252.81;5143055;28;20023;-60
2022/04/03 04:43:49;;;;;;;1.98;1.42;;;;;;;17.46;35.90;102257.22;5144382;28;20100;-58
2022/04/03 04:46:14;;;;;;;1.10;1.10;;;;;;;17.47;35.84;102250.88;5144036;28;20048;-60
2022/04/03 04:48:39;;;;;;;1.67;1.40;;;;;;;17.41;35.84;102242.44;5144168;28;20035;-60
2022/04/03 04:51:05;;;;;;;1.70;1.05;;;;;;;17.51;36.08;102254.16;5144426;27;20038;-61
2022/04/03 04:53:30;;;;;;;1.60;1.33;;;;;;;17.52;35.72;102250.47;5148040;27;20068;-60
2022/04/03 04:55:55;;;;;;;1.35;1.15;;;;;;;17.51;35.61;102250.63;5147064;27;20023;-60
2022/04/03 04:58:20;;;;;;;1.33;1.20;;;;;;;17.56;35.83;102260.00;5147979;27;20044;-60
2022/04/03 05:00:46;;;;;;;1.20;1.10;;;;;;;17.56;35.69;102251.09;5147514;27;20026;-59
2022/04/03 05:03:12;;;;;;;1.40;1.30;;;;;;;17.60;35.74;102257.94;5147966;27;20075;-60
2022/04/03 05:05:37;;;;;;;1.60;1.17;;;;;;;17.61;35.70;102251.56;5144717;27;20035;-56
2022/04/03 05:08:02;;;;;;;1.40;1.30;;;;;;;17.62;35.87;102255.94;5126958;27;20031;-59
2022/04/03 05:10:30;;;;;;;0.85;0.85;;;;;;;17.64;35.68;102256.69;5125845;28;20038;-59
2022/04/03 05:12:55;;;;;;;1.50;1.40;;;;;;;17.64;35.61;102257.53;5127062;28;20465;-60
2022/04/03 05:15:21;;;;;;;1.30;1.20;;;;;;;17.66;35.67;102252.88;5125368;28;20040;-60
2022/04/03 05:17:46;;;;;;;1.50;1.08;;;;;;;17.65;35.55;102243.09;5108420;28;20038;-60
2022/04/03 05:20:13;;;;;;;1.40;1.25;;;;;;;17.69;35.47;102251.78;5126641;28;20055;-60
2022/04/03 05:22:39;;;;;;;1.35;1.15;;;;;;;17.70;35.39;102250.78;5133629;27;20039;-60
2022/04/03 05:25:05;;;;;;;1.00;1.00;;;;;;;17.71;35.59;102253.38;5146758;27;20023;-59
2022/04/03 05:27:31;;;;;;;1.45;1.08;;;;;;;17.71;35.56;102249.78;5128455;27;20561;-60
2022/04/03 05:29:56;;;;;;;1.50;1.20;;;;;;;17.74;35.59;102253.13;5147270;27;20035;-60
2022/04/03 05:32:26;;;;;;;1.23;1.10;;;;;;;17.77;35.24;102249.34;5147317;27;20388;-60
2022/04/03 05:34:52;;;;;;;1.45;1.20;;;;;;;17.72;35.27;102247.00;5146697;27;20110;-59
2022/04/03 05:37:17;;;;;;;1.70;1.20;;;;;;;17.80;35.41;102258.97;5147392;27;20031;-60
2022/04/03 05:39:43;;;;;;;1.40;1.10;;;;;;;17.81;35.35;102253.47;5146348;27;20105;-60
2022/04/03 05:42:08;;;;;;;1.90;1.10;;;;;;;17.82;35.43;102263.25;5127927;27;20035;-60
2022/04/03 05:44:33;;;;;;;1.25;1.05;;;;;;;17.84;35.26;102255.91;5146655;27;20019;-60
2022/04/03 05:46:58;;;;;;;2.03;1.10;;;;;;;17.87;35.26;102255.63;5143199;27;20045;-60
2022/04/03 05:49:24;;;;;;;1.05;0.90;;;;;;;17.89;35.12;102256.38;5142644;27;20042;-60
2022/04/03 05:51:49;;;;;;;1.00;0.90;;;;;;;17.93;35.36;102254.28;5142482;27;20023;-59
2022/04/03 05:54:14;;;;;;;1.25;1.15;;;;;;;17.97;35.38;102250.34;5143320;27;20030;-60
2022/04/03 05:56:40;;;;;;;1.23;1.10;;;;;;;17.99;35.12;102253.75;5139646;27;20035;-60
2022/04/03 05:59:05;;;;;;;1.35;1.10;;;;;;;18.02;35.13;102258.88;5146815;27;20035;-60
2022/04/03 06:01:30;;;;;;;1.30;1.17;;;;;;;18.05;35.35;102255.06;5145838;27;20023;-59
2022/04/03 06:03:57;;;;;;;2.22;1.10;;;;;;;18.09;35.03;102262.75;5144445;27;20020;-59
2022/04/03 06:06:22;;;;;;;1.13;1.02;;;;;;;18.11;35.25;102257.25;5138380;27;20016;-59
2022/04/03 06:08:47;;;;;;;1.10;1.00;;;;;;;18.13;34.97;102261.50;5146037;27;20123;-55
2022/04/03 06:11:13;;;;;;;1.10;1.00;;;;;;;18.14;35.13;102257.84;5144925;27;20019;-60
2022/04/03 06:13:39;;;;;;;1.25;0.95;;;;;;;18.17;34.98;102260.25;5146085;27;20012;-60
2022/04/03 06:16:04;;;;;;;1.30;1.20;;;;;;;18.20;35.25;102261.84;5139922;27;20029;-59
2022/04/03 06:18:29;;;;;;;1.20;1.10;;;;;;;18.21;34.93;102256.31;5137432;27;20035;-59
2022/04/03 06:20:54;;;;;;;1.25;1.00;;;;;;;18.23;35.03;102257.06;5139616;27;20027;-60
2022/04/03 06:23:21;;;;;;;1.10;1.00;;;;;;;18.27;35.04;102254.13;5142522;27;20031;-59
2022/04/03 06:25:48;;;;;;;0.85;0.82;;;;;;;18.28;35.01;102253.13;5138585;27;20034;-60
2022/04/03 06:28:14;;;;;;;1.35;0.93;;;;;;;18.31;34.88;102250.13;5121810;27;20064;-60
2022/04/03 06:30:39;;;;;;;0.90;0.90;;;;;;;18.32;34.97;102252.72;5145387;27;20026;-60
2022/04/03 06:33:05;;;;;;;0.80;0.80;;;;;;;18.34;34.96;102253.44;5139847;27;20023;-60
2022/04/03 06:35:30;;;;;;;2.45;1.20;;;;;;;18.28;35.14;102248.59;5136319;27;20035;-60
2022/04/03 06:37:56;;;;;;;1.33;1.00;;;;;;;18.37;34.89;102263.09;5142790;27;20027;-60
2022/04/03 06:40:23;;;;;;;1.10;0.93;;;;;;;18.39;35.07;102262.00;5144178;27;20122;-59
2022/04/03 06:42:48;;;;;;;0.70;0.70;;;;;;;18.42;34.90;102263.53;5142139;27;20023;-60
2022/04/03 06:45:14;;;;;;;0.95;0.95;;;;;;;18.45;34.72;102263.28;5141328;27;20087;-60
2022/04/03 06:47:40;;;;;;;1.10;0.90;;;;;;;18.46;34.73;102270.38;5143667;27;20030;-60
2022/04/03 06:50:05;;;;;;;1.45;0.95;;;;;;;18.48;34.81;102263.88;5140896;27;20019;-60
2022/04/03 06:52:31;;;;;;;1.40;1.00;;;;;;;18.47;34.80;102264.84;5141955;27;20033;-59
2022/04/03 06:54:56;;;;;;;1.00;0.90;;;;;;;18.51;34.73;102270.81;5141238;27;20053;-59
2022/04/03 06:57:21;;;;;;;1.45;1.30;;;;;;;18.53;34.76;102274.25;5141420;27;20026;-60
2022/04/03 06:59:47;;;;;;;1.00;0.90;;;;;;;18.55;34.94;102269.56;5142062;27;20788;-60
2022/04/03 07:02:12;;;;;;;1.02;0.90;;;;;;;18.56;34.95;102270.41;5133374;27;20019;-60
2022/04/03 07:04:38;;;;;;;0.90;0.90;;;;;;;18.60;34.69;102272.72;5126278;27;20015;-58
2022/04/03 07:07:03;;;;;;;1.80;1.08;;;;;;;18.64;34.91;102274.16;5136899;27;20020;-60
2022/04/03 07:09:29;;;;;;;0.90;0.90;;;;;;;18.68;35.01;102274.75;5142664;27;20103;-59
2022/04/03 07:11:54;;;;;;;0.80;0.75;;;;;;;18.71;34.81;102278.06;5143903;27;20083;-60
2022/04/03 07:14:19;;;;;;;1.00;0.90;;;;;;;18.75;34.56;102270.56;5144376;27;20089;-60
2022/04/03 07:16:44;;;;;;;2.30;0.80;;;;;;;18.77;34.74;102265.88;5145047;27;20035;-59
2022/04/03 07:19:11;;;;;;;0.75;0.70;;;;;;;18.80;34.62;102271.00;5144969;27;20543;-60
2022/04/03 07:21:36;;;;;;;1.20;1.00;;;;;;;18.83;34.79;102276.13;5144719;27;20398;-59
2022/04/03 07:24:01;;;;;;;1.92;0.90;;;;;;;18.86;34.32;102275.00;5144770;27;20027;-59
2022/04/03 07:26:27;;;;;;;1.63;0.90;;;;;;;18.86;34.46;102266.91;5143695;27;20034;-60
2022/04/03 07:28:52;;;;;;;1.30;0.80;;;;;;;18.90;34.64;102271.94;5144805;27;20019;-59
2022/04/03 07:31:17;;;;;;;1.73;0.90;;;;;;;18.93;34.36;102274.31;5144610;27;20094;-59
2022/04/03 07:33:42;;;;;;;0.60;0.60;;;;;;;18.97;34.50;102275.75;5144813;27;20055;-60
2022/04/03 07:36:07;;;;;;;0.70;0.70;;;;;;;19.01;34.62;102265.56;5125904;27;20114;-60
2022/04/03 07:38:33;;;;;;;0.70;0.70;;;;;;;19.06;34.44;102270.53;5144650;27;20046;-59
2022/04/03 07:40:58;;;;;;;1.02;0.95;;;;;;;19.11;34.17;102270.97;5143452;27;20034;-60
2022/04/03 07:43:25;;;;;;;1.25;0.70;;;;;;;19.14;34.19;102273.41;5144443;27;20112;-60
2022/04/03 07:45:50;;;;;;;1.42;0.90;;;;;;;19.12;34.22;102268.16;5144094;27;20027;-59
2022/04/03 07:48:19;;;;;;;0.85;0.70;;;;;;;19.20;34.05;102275.59;5144779;27;20058;-59
2022/04/03 07:50:44;;;;;;;0.70;0.60;;;;;;;19.21;34.12;102272.72;5144159;27;20035;-60
2022/04/03 07:53:09;;;;;;;0.70;0.60;;;;;;;19.25;34.17;102277.88;5144423;27;20094;-60
2022/04/03 07:55:35;;;;;;;1.60;0.75;;;;;;;19.27;33.88;102268.63;5143437;27;20035;-59
2022/04/03 07:58:00;;;;;;;1.02;0.70;;;;;;;19.31;33.99;102274.59;5144343;28;20031;-60
2022/04/03 08:00:26;;;;;;;1.52;0.82;;;;;;;19.34;34.25;102274.34;5144672;27;20027;-60
2022/04/03 08:02:51;;;;;;;1.08;0.65;;;;;;;19.37;33.79;102274.91;5144418;27;20091;-60
2022/04/03 08:05:16;;;;;;;0.90;0.70;;;;;;;19.40;33.72;102268.38;5144008;28;20035;-60
2022/04/03 08:07:44;;;;;;;1.33;0.60;;;;;;;19.42;33.85;102271.78;5144568;28;20011;-60
2022/04/03 08:10:10;;;;;;;0.73;0.60;;;;;;;19.45;33.88;102280.47;5143682;28;20023;-60
2022/04/03 08:12:36;;;;;;;1.63;0.70;;;;;;;19.48;33.64;102273.94;5144025;28;20023;-60
2022/04/03 08:15:04;;;;;;;0.60;0.60;;;;;;;19.51;33.65;102264.72;5143913;28;20027;-60
2022/04/03 08:17:29;;;;;;;0.75;0.75;;;;;;;19.54;33.80;102270.69;5144515;28;20026;-60
2022/04/03 08:19:54;;;;;;;0.88;0.60;;;;;;;19.56;33.62;102279.47;5144041;28;20027;-60
2022/04/03 08:22:19;;;;;;;0.70;0.70;;;;;;;19.58;33.52;102277.50;5138125;28;20081;-60
2022/04/03 08:24:45;;;;;;;1.67;0.90;;;;;;;19.61;33.69;102271.00;5140387;27;20023;-57
2022/04/03 08:27:12;;;;;;;0.82;0.60;;;;;;;19.62;33.57;102272.69;5147432;27;20018;-61
2022/04/03 08:29:37;;;;;;;0.50;0.50;;;;;;;19.63;33.56;102275.28;5144302;27;20106;-60
2022/04/03 08:32:03;;;;;;;0.50;0.50;;;;;;;19.66;33.73;102272.25;5146809;27;20015;-61
2022/04/03 08:34:28;;;;;;;0.98;0.55;;;;;;;19.71;33.52;102274.56;5144285;27;20015;-61
2022/04/03 08:36:53;;;;;;;0.82;0.60;;;;;;;19.73;33.75;102280.66;5143760;27;20039;-61
2022/04/03 08:39:19;;;;;;;0.80;0.70;;;;;;;19.76;33.54;102275.00;5144752;27;20398;-61
2022/04/03 08:41:44;;;;;;;1.13;0.65;;;;;;;19.80;33.51;102281.81;5147093;27;20539;-57
2022/04/03 08:44:10;;;;;;;0.43;0.43;;;;;;;19.82;33.59;102274.41;5148066;27;20392;-55
2022/04/03 08:46:36;;;;;;;1.85;0.70;;;;;;;19.85;33.38;102271.44;5147773;27;20395;-56
2022/04/03 08:49:02;;;;;;;1.08;0.50;;;;;;;19.89;33.46;102272.88;5146692;27;20031;-56
2022/04/03 08:51:28;;;;;;;0.60;0.50;;;;;;;19.93;33.61;102277.00;5147610;27;20026;-56
2022/04/03 08:53:53;;;;;;;0.90;0.60;;;;;;;19.93;33.43;102273.44;5147832;27;20054;-56
2022/04/03 08:56:19;;;;;;;0.75;0.63;;;;;;;19.95;33.31;102277.69;5146868;27;20023;-56
2022/04/03 08:58:44;;;;;;;0.88;0.60;;;;;;;19.95;33.48;102269.59;5148031;27;20031;-56
2022/04/03 09:01:09;;;;;;;1.10;0.80;;;;;;;19.94;33.46;102277.84;5147134;27;20566;-56
2022/04/03 09:03:34;;;;;;;1.75;0.70;;;;;;;19.94;33.29;102284.09;5129529;27;20019;-56
2022/04/03 09:06:13;;;;;;;0.68;0.60;;;;;;;19.95;33.24;102282.22;5146555;27;20075;-58
2022/04/03 09:08:38;;;;;;;1.35;0.70;;;;;;;19.93;33.46;102287.78;5147038;27;20023;-55
2022/04/03 09:11:05;;;;;;;1.25;0.68;;;;;;;19.94;33.41;102288.63;5146128;27;20152;-56
2022/04/03 09:13:30;;;;;;;0.40;0.40;;;;;;;19.94;33.13;102286.78;5147566;27;20027;-56
2022/04/03 09:15:56;;;;;;;1.38;0.60;;;;;;;19.97;33.03;102285.66;5146949;27;20031;-56
2022/04/03 09:18:21;;;;;;;0.70;0.60;;;;;;;19.96;33.15;102279.41;5147398;27;20031;-52
2022/04/03 09:20:46;;;;;;;0.50;0.50;;;;;;;19.96;33.17;102278.53;5146729;27;20027;-56
2022/04/03 09:23:16;;;;;;;0.50;0.50;;;;;;;19.92;33.15;102271.72;5147370;27;20015;-55
2022/04/03 09:25:43;;;;;;;0.55;0.50;;;;;;;19.98;33.14;102288.22;5127555;27;20068;-55
2022/04/03 09:28:11;;;;;;;1.67;0.65;;;;;;;20.01;33.41;102289.78;5147314;27;20046;-55
2022/04/03 09:30:38;;;;;;;0.90;0.60;;;;;;;20.00;32.98;102282.66;5146410;27;20515;-53
2022/04/03 09:33:08;;;;;;;1.35;0.50;;;;;;;20.04;32.96;102284.06;5146877;27;20026;-55
2022/04/03 09:36:01;;;;;;;1.63;0.60;;;;;;;20.08;33.34;102285.50;5134443;27;20065;-54
2022/04/03 09:38:27;;;;;;;0.73;0.60;;;;;;;20.09;33.35;102284.53;5143028;27;20039;-56
2022/04/03 09:40:53;;;;;;;0.90;0.60;;;;;;;20.04;33.50;102267.88;5145901;27;20027;-56
2022/04/03 09:43:20;;;;;;;1.08;0.70;;;;;;;20.14;33.27;102276.00;5128752;27;20069;-55
2022/04/03 09:45:47;;;;;;;2.47;0.50;;;;;;;20.15;33.23;102272.28;5146538;27;20027;-55
2022/04/03 09:48:41;;;;;;;1.05;0.63;;;;;;;20.20;33.46;102268.16;5146940;27;20079;-55
2022/04/03 09:51:10;;;;;;;2.13;0.60;;;;;;;20.23;32.98;102267.03;5146269;27;20030;-55
2022/04/03 09:53:39;;;;;;;;;;;;;;;20.25;33.17;102261.47;5147319;27;20027;-53
2022/04/03 09:56:04;;;;;;;1.45;0.60;;;;;;;20.28;33.07;102256.63;5145659;27;19950;-56
2022/04/03 09:58:29;;;;;;;0.52;0.45;;;;;;;20.30;33.02;102264.56;5145416;27;20150;-56
2022/04/03 10:00:54;;;;;;;0.85;0.57;;;;;;;20.32;33.09;102262.59;5146263;27;20106;-55
2022/04/03 10:03:22;;;;;;;0.65;0.52;;;;;;;20.35;33.27;102265.88;5146365;27;20035;-56
2022/04/03 10:05:47;;;;;;;0.95;0.57;;;;;;;20.37;33.00;102260.31;5141654;27;20023;-54
2022/04/03 10:08:13;;;;;;;0.90;0.60;;;;;;;20.40;33.02;102262.72;5145931;27;20075;-53
2022/04/03 10:10:38;;;;;;;0.70;0.45;;;;;;;20.40;33.25;102257.31;5127188;27;20034;-55
2022/04/03 10:13:04;;;;;;;0.50;0.47;;;;;;;20.44;32.80;102265.00;5146521;27;20029;-55
2022/04/03 10:15:30;;;;;;;1.58;0.60;;;;;;;20.45;33.22;102257.72;5145917;27;20023;-55
2022/04/03 10:17:55;;;;;;;1.05;0.60;;;;;;;20.47;32.88;102256.59;5145725;27;20019;-56
2022/04/03 10:20:28;;;;;;;0.98;0.80;;;;;;;20.48;32.97;102257.47;5145699;27;20090;-56
2022/04/03 10:23:00;;;;;;;0.80;0.60;;;;;;;20.53;32.95;102257.88;5145918;27;20019;-55
2022/04/03 10:25:29;;;;;;;2.50;1.02;;;;;;;20.56;33.34;102256.72;5126879;27;20102;-56
2022/04/03 10:28:01;;;;;;;3.22;1.20;;;;;;;20.58;33.19;102249.34;5127278;27;20046;-55
2022/04/03 10:30:38;;;;;;;1.63;1.25;;;;;;;20.61;33.33;102259.84;5127808;27;20087;-54
2022/04/03 10:33:04;;;;;;;2.30;0.85;;;;;;;20.62;33.00;102248.03;5145899;27;20078;-56
2022/04/03 10:35:30;;;;;;;2.22;0.88;;;;;;;20.65;33.11;102253.16;5150088;27;20039;-55
2022/04/03 10:38:05;;;;;;;2.08;0.93;;;;;;;20.68;33.47;102247.44;5138505;27;20130;-55
2022/04/03 10:40:33;;;;;;;3.08;1.02;;;;;;;20.68;33.15;102237.47;5140836;27;20062;-56
2022/04/03 10:43:05;;;;;;;2.15;0.93;;;;;;;20.73;33.18;102247.88;5134911;27;20035;-55
2022/04/03 10:45:35;;;;;;;1.83;1.00;;;;;;;20.76;33.29;102241.28;5113169;27;20475;-55
2022/04/03 10:48:19;;;;;;;1.50;1.08;;;;;;;20.79;33.20;102239.16;5145413;27;20022;-55
2022/04/03 10:51:05;;;;;;;1.45;0.90;;;;;;;20.81;33.18;102225.47;5144944;27;20027;-54
2022/04/03 10:53:38;;;;;;;2.10;1.10;;;;;;;20.82;33.32;102229.91;5145751;27;20079;-53
2022/04/03 10:56:09;;;;;;;1.98;0.82;;;;;;;20.82;33.42;102228.06;5144530;27;20023;-52
2022/04/03 10:58:41;;;;;;;2.58;1.13;;;;;;;20.84;33.55;102228.75;5145389;27;20027;-53
2022/04/03 11:01:10;;;;;;;3.10;0.80;;;;;;;20.84;33.69;102222.50;5145066;27;20035;-54
2022/04/03 11:03:36;;;;;;;;;;;;;;;20.80;33.76;102219.22;5145830;27;20027;-55
2022/04/03 11:06:21;;;;;;;2.45;1.02;;;;;;;20.81;33.84;102220.06;5144780;27;19918;-53
2022/04/03 11:09:12;;;;;;;2.70;1.00;;;;;;;20.81;33.82;102214.66;5145211;27;20027;-55
2022/04/03 11:11:43;;;;;;;2.45;0.98;;;;;;;20.80;33.89;102212.97;5143378;27;20031;-54
2022/04/03 11:14:10;;;;;;;1.67;0.88;;;;;;;20.79;33.96;102209.41;5145272;27;20035;-56
2022/04/03 11:17:05;;;;;;;1.88;1.08;;;;;;;20.79;33.65;102214.81;5126083;27;20026;-55
2022/04/03 11:19:41;;;;;;;1.63;1.00;;;;;;;20.80;34.01;102218.38;5122368;27;20039;-56
2022/04/03 11:22:09;;;;;;;1.35;0.90;;;;;;;20.79;34.02;102222.09;5144946;27;20027;-54
2022/04/03 11:24:36;;;;;;;2.38;1.17;;;;;;;20.76;33.82;102214.28;5145065;27;20023;-56